sensor_id;sensor_type;location;lat;lon;timestamp;temperature;humidity
25360;DHT22;13311;51.386;0.016;2024-03-23T00:56:06;10.10;88.60
25360;DHT22;13311;51.386;0.016;2024-03-23T01:01:07;10.00;88.70
25360;DHT22;13311;51.386;0.016;2024-03-23T01:06:08;10.00;88.90
25360;DHT22;13311;51.386;0.016;2024-03-23T01:11:08;9.90;89.30
25360;DHT22;13311;51.386;0.016;2024-03-23T01:16:09;9.80;89.80
25360;DHT22;13311;51.386;0.016;2024-03-23T01:21:10;9.90;90.10
25360;DHT22;13311;51.386;0.016;2024-03-23T01:26:11;10.00;90.10
25360;DHT22;13311;51.386;0.016;2024-03-23T01:31:11;9.90;90.30
25360;DHT22;13311;51.386;0.016;2024-03-23T01:36:12;9.90;90.40
25360;DHT22;13311;51.386;0.016;2024-03-23T01:41:13;9.90;90.60
25360;DHT22;13311;51.386;0.016;2024-03-23T01:46:14;9.70;90.90
25360;DHT22;13311;51.386;0.016;2024-03-23T01:51:14;9.70;90.90
25360;DHT22;13311;51.386;0.016;2024-03-23T01:56:15;9.60;91.10
25360;DHT22;13311;51.386;0.016;2024-03-23T02:01:16;9.70;91.20
25360;DHT22;13311;51.386;0.016;2024-03-23T02:06:17;9.70;91.20
25360;DHT22;13311;51.386;0.016;2024-03-23T02:11:18;9.70;91.50
25360;DHT22;13311;51.386;0.016;2024-03-23T02:16:18;9.70;91.30
25360;DHT22;13311;51.386;0.016;2024-03-23T02:21:19;9.80;91.40
25360;DHT22;13311;51.386;0.016;2024-03-23T02:26:20;9.70;91.30
25360;DHT22;13311;51.386;0.016;2024-03-23T02:31:20;9.70;91.30
25360;DHT22;13311;51.386;0.016;2024-03-23T02:36:21;9.50;91.60
25360;DHT22;13311;51.386;0.016;2024-03-23T02:41:22;9.50;91.50
25360;DHT22;13311;51.386;0.016;2024-03-23T02:46:24;9.50;91.70
25360;DHT22;13311;51.386;0.016;2024-03-23T02:51:24;9.50;91.80
25360;DHT22;13311;51.386;0.016;2024-03-23T02:56:25;9.50;91.60
25360;DHT22;13311;51.386;0.016;2024-03-23T03:01:26;9.40;91.60
25360;DHT22;13311;51.386;0.016;2024-03-23T03:06:27;9.40;91.80
25360;DHT22;13311;51.386;0.016;2024-03-23T03:11:27;9.30;91.80
25360;DHT22;13311;51.386;0.016;2024-03-23T03:16:28;9.30;91.90
25360;DHT22;13311;51.386;0.016;2024-03-23T03:21:29;9.10;92.00
25360;DHT22;13311;51.386;0.016;2024-03-23T03:26:30;9.00;92.20
25360;DHT22;13311;51.386;0.016;2024-03-23T03:31:30;8.90;92.40
25360;DHT22;13311;51.386;0.016;2024-03-23T03:36:31;8.80;92.60
25360;DHT22;13311;51.386;0.016;2024-03-23T03:41:32;9.00;92.40
25360;DHT22;13311;51.386;0.016;2024-03-23T03:46:32;8.90;92.60
25360;DHT22;13311;51.386;0.016;2024-03-23T03:51:33;8.90;92.60
25360;DHT22;13311;51.386;0.016;2024-03-23T03:56:34;8.80;92.60
25360;DHT22;13311;51.386;0.016;2024-03-23T04:01:35;8.70;92.70
25360;DHT22;13311;51.386;0.016;2024-03-23T04:06:35;8.70;92.60
25360;DHT22;13311;51.386;0.016;2024-03-23T04:11:36;8.80;92.60
25360;DHT22;13311;51.386;0.016;2024-03-23T04:16:37;8.80;92.60
25360;DHT22;13311;51.386;0.016;2024-03-23T04:21:37;8.90;92.50
25360;DHT22;13311;51.386;0.016;2024-03-23T04:26:42;8.90;92.40
25360;DHT22;13311;51.386;0.016;2024-03-23T04:31:43;9.00;92.30
25360;DHT22;13311;51.386;0.016;2024-03-23T04:36:44;9.00;92.40
25360;DHT22;13311;51.386;0.016;2024-03-23T04:41:45;9.00;92.20
25360;DHT22;13311;51.386;0.016;2024-03-23T04:46:46;8.90;92.60
25360;DHT22;13311;51.386;0.016;2024-03-23T04:51:46;8.80;92.50
25360;DHT22;13311;51.386;0.016;2024-03-23T04:56:47;9.00;92.50
25360;DHT22;13311;51.386;0.016;2024-03-23T05:01:48;8.90;92.30
25360;DHT22;13311;51.386;0.016;2024-03-23T05:06:49;8.90;92.50
25360;DHT22;13311;51.386;0.016;2024-03-23T05:11:49;8.90;92.40
25360;DHT22;13311;51.386;0.016;2024-03-23T05:16:50;9.00;92.60
25360;DHT22;13311;51.386;0.016;2024-03-23T05:21:51;9.00;92.30
25360;DHT22;13311;51.386;0.016;2024-03-23T05:26:53;9.00;92.10
25360;DHT22;13311;51.386;0.016;2024-03-23T05:31:54;9.00;92.00
25360;DHT22;13311;51.386;0.016;2024-03-23T05:36:56;9.00;92.40
25360;DHT22;13311;51.386;0.016;2024-03-23T05:41:57;8.90;92.20
25360;DHT22;13311;51.386;0.016;2024-03-23T05:46:58;8.80;92.40
25360;DHT22;13311;51.386;0.016;2024-03-23T05:51:59;8.80;92.40
25360;DHT22;13311;51.386;0.016;2024-03-23T05:57:03;8.70;92.40
25360;DHT22;13311;51.386;0.016;2024-03-23T06:02:04;8.50;92.60
25360;DHT22;13311;51.386;0.016;2024-03-23T06:07:04;8.30;92.90
25360;DHT22;13311;51.386;0.016;2024-03-23T06:12:14;8.40;93.00
25360;DHT22;13311;51.386;0.016;2024-03-23T06:17:14;8.50;92.80
25360;DHT22;13311;51.386;0.016;2024-03-23T06:22:16;8.50;92.80
25360;DHT22;13311;51.386;0.016;2024-03-23T06:27:16;8.60;92.80
25360;DHT22;13311;51.386;0.016;2024-03-23T06:32:17;8.60;93.20
25360;DHT22;13311;51.386;0.016;2024-03-23T06:37:18;8.90;93.10
25360;DHT22;13311;51.386;0.016;2024-03-23T06:42:19;9.10;92.60
25360;DHT22;13311;51.386;0.016;2024-03-23T06:47:19;9.30;92.50
25360;DHT22;13311;51.386;0.016;2024-03-23T06:52:20;9.50;92.20
25360;DHT22;13311;51.386;0.016;2024-03-23T06:57:21;9.50;92.10
25360;DHT22;13311;51.386;0.016;2024-03-23T07:02:22;9.50;92.30
25360;DHT22;13311;51.386;0.016;2024-03-23T07:07:23;9.70;92.00
25360;DHT22;13311;51.386;0.016;2024-03-23T07:12:23;9.90;91.70
25360;DHT22;13311;51.386;0.016;2024-03-23T07:17:24;10.20;91.60
25360;DHT22;13311;51.386;0.016;2024-03-23T07:22:25;10.70;90.80
25360;DHT22;13311;51.386;0.016;2024-03-23T07:27:27;11.10;90.70
25360;DHT22;13311;51.386;0.016;2024-03-23T07:32:27;11.50;90.20
25360;DHT22;13311;51.386;0.016;2024-03-23T07:37:28;11.80;88.80
25360;DHT22;13311;51.386;0.016;2024-03-23T07:42:29;11.90;87.90
25360;DHT22;13311;51.386;0.016;2024-03-23T07:47:30;11.90;87.60
25360;DHT22;13311;51.386;0.016;2024-03-23T07:52:31;11.90;87.30
25360;DHT22;13311;51.386;0.016;2024-03-23T07:57:32;11.80;87.40
25360;DHT22;13311;51.386;0.016;2024-03-23T08:02:32;11.80;86.90
25360;DHT22;13311;51.386;0.016;2024-03-23T08:07:33;11.80;87.80
25360;DHT22;13311;51.386;0.016;2024-03-23T08:12:34;11.90;87.80
25360;DHT22;13311;51.386;0.016;2024-03-23T08:17:34;11.90;87.80
25360;DHT22;13311;51.386;0.016;2024-03-23T08:22:35;12.10;87.70
25360;DHT22;13311;51.386;0.016;2024-03-23T08:27:36;12.10;88.20
25360;DHT22;13311;51.386;0.016;2024-03-23T08:32:37;12.10;88.40
25360;DHT22;13311;51.386;0.016;2024-03-23T08:37:37;12.20;87.30
25360;DHT22;13311;51.386;0.016;2024-03-23T08:42:38;12.50;86.30
25360;DHT22;13311;51.386;0.016;2024-03-23T08:47:39;12.70;86.50
25360;DHT22;13311;51.386;0.016;2024-03-23T08:52:39;12.90;86.20
25360;DHT22;13311;51.386;0.016;2024-03-23T08:57:40;12.90;86.40
25360;DHT22;13311;51.386;0.016;2024-03-23T09:02:41;12.90;86.60
25360;DHT22;13311;51.386;0.016;2024-03-23T09:07:41;13.20;85.70
25360;DHT22;13311;51.386;0.016;2024-03-23T09:12:42;13.30;86.00
25360;DHT22;13311;51.386;0.016;2024-03-23T09:17:43;13.50;85.40
25360;DHT22;13311;51.386;0.016;2024-03-23T09:22:43;13.60;82.40
25360;DHT22;13311;51.386;0.016;2024-03-23T09:27:47;13.70;84.60
25360;DHT22;13311;51.386;0.016;2024-03-23T09:32:48;13.90;82.20
25360;DHT22;13311;51.386;0.016;2024-03-23T09:37:48;14.10;82.80
25360;DHT22;13311;51.386;0.016;2024-03-23T09:42:50;14.10;86.50
25360;DHT22;13311;51.386;0.016;2024-03-23T09:47:51;14.10;84.70
25360;DHT22;13311;51.386;0.016;2024-03-23T09:52:52;14.30;85.50
25360;DHT22;13311;51.386;0.016;2024-03-23T09:57:52;14.40;84.00
25360;DHT22;13311;51.386;0.016;2024-03-23T10:02:56;14.50;80.60
25360;DHT22;13311;51.386;0.016;2024-03-23T10:08:18;14.50;84.80
25360;DHT22;13311;51.386;0.016;2024-03-23T10:13:26;14.40;81.20
25360;DHT22;13311;51.386;0.016;2024-03-23T10:18:29;14.40;85.00
25360;DHT22;13311;51.386;0.016;2024-03-23T10:23:30;14.30;80.80
25360;DHT22;13311;51.386;0.016;2024-03-23T10:28:31;14.30;82.10
25360;DHT22;13311;51.386;0.016;2024-03-23T10:33:32;14.40;85.20
25360;DHT22;13311;51.386;0.016;2024-03-23T10:38:33;14.50;84.00
25360;DHT22;13311;51.386;0.016;2024-03-23T10:43:34;14.50;82.30
25360;DHT22;13311;51.386;0.016;2024-03-23T10:48:36;14.60;86.50
25360;DHT22;13311;51.386;0.016;2024-03-23T10:53:38;14.50;81.30
25360;DHT22;13311;51.386;0.016;2024-03-23T10:58:44;14.50;82.90
25360;DHT22;13311;51.386;0.016;2024-03-23T11:03:47;14.70;84.00
25360;DHT22;13311;51.386;0.016;2024-03-23T11:08:48;14.80;82.20
25360;DHT22;13311;51.386;0.016;2024-03-23T11:13:52;14.80;78.50
25360;DHT22;13311;51.386;0.016;2024-03-23T11:18:54;14.80;79.00
25360;DHT22;13311;51.386;0.016;2024-03-23T11:24:33;14.90;80.90
25360;DHT22;13311;51.386;0.016;2024-03-23T11:29:34;14.90;78.40
25360;DHT22;13311;51.386;0.016;2024-03-23T11:34:35;15.10;79.90
25360;DHT22;13311;51.386;0.016;2024-03-23T11:39:36;15.30;82.00
25360;DHT22;13311;51.386;0.016;2024-03-23T11:44:37;15.40;86.20
25360;DHT22;13311;51.386;0.016;2024-03-23T11:49:38;15.50;82.90
25360;DHT22;13311;51.386;0.016;2024-03-23T11:54:41;15.70;82.90
25360;DHT22;13311;51.386;0.016;2024-03-23T11:59:42;15.70;78.10
25360;DHT22;13311;51.386;0.016;2024-03-23T12:04:44;15.80;82.80
25360;DHT22;13311;51.386;0.016;2024-03-23T12:09:46;15.90;82.70
25360;DHT22;13311;51.386;0.016;2024-03-23T12:15:04;15.90;77.70
25360;DHT22;13311;51.386;0.016;2024-03-23T12:20:07;15.90;77.00
25360;DHT22;13311;51.386;0.016;2024-03-23T12:25:08;16.00;84.40
25360;DHT22;13311;51.386;0.016;2024-03-23T12:30:09;16.10;75.60
25360;DHT22;13311;51.386;0.016;2024-03-23T12:35:10;16.20;75.60
25360;DHT22;13311;51.386;0.016;2024-03-23T12:40:11;16.40;80.60
25360;DHT22;13311;51.386;0.016;2024-03-23T12:45:12;16.30;79.70
25360;DHT22;13311;51.386;0.016;2024-03-23T12:50:13;16.30;77.90
25360;DHT22;13311;51.386;0.016;2024-03-23T12:55:14;16.40;72.70
25360;DHT22;13311;51.386;0.016;2024-03-23T13:00:15;16.40;78.30
25360;DHT22;13311;51.386;0.016;2024-03-23T13:05:17;16.40;76.60
25360;DHT22;13311;51.386;0.016;2024-03-23T13:10:17;16.40;72.90
25360;DHT22;13311;51.386;0.016;2024-03-23T13:15:18;16.30;76.00
25360;DHT22;13311;51.386;0.016;2024-03-23T13:20:20;16.30;79.90
25360;DHT22;13311;51.386;0.016;2024-03-23T13:25:21;16.10;74.00
25360;DHT22;13311;51.386;0.016;2024-03-23T13:30:22;16.10;79.60
25360;DHT22;13311;51.386;0.016;2024-03-23T13:35:22;16.00;84.10
25360;DHT22;13311;51.386;0.016;2024-03-23T13:40:23;15.80;77.00
25360;DHT22;13311;51.386;0.016;2024-03-23T13:45:24;15.60;75.30
25360;DHT22;13311;51.386;0.016;2024-03-23T13:50:25;15.60;82.60
25360;DHT22;13311;51.386;0.016;2024-03-23T13:55:26;15.30;87.30
25360;DHT22;13311;51.386;0.016;2024-03-23T14:00:26;14.80;86.50
25360;DHT22;13311;51.386;0.016;2024-03-23T14:05:27;14.20;86.00
25360;DHT22;13311;51.386;0.016;2024-03-23T14:10:28;13.70;87.80
25360;DHT22;13311;51.386;0.016;2024-03-23T14:15:29;13.50;90.40
25360;DHT22;13311;51.386;0.016;2024-03-23T14:20:32;13.30;90.80
25360;DHT22;13311;51.386;0.016;2024-03-23T14:25:34;13.20;90.50
25360;DHT22;13311;51.386;0.016;2024-03-23T14:30:34;13.20;91.30
25360;DHT22;13311;51.386;0.016;2024-03-23T14:35:35;13.30;91.60
25360;DHT22;13311;51.386;0.016;2024-03-23T14:40:37;13.30;91.00
25360;DHT22;13311;51.386;0.016;2024-03-23T14:51:13;13.50;91.20
25360;DHT22;13311;51.386;0.016;2024-03-23T14:56:14;13.50;91.10
25360;DHT22;13311;51.386;0.016;2024-03-23T15:01:16;13.60;90.70
25360;DHT22;13311;51.386;0.016;2024-03-23T15:06:16;13.70;90.60
25360;DHT22;13311;51.386;0.016;2024-03-23T15:11:17;13.80;90.50
25360;DHT22;13311;51.386;0.016;2024-03-23T15:16:20;13.70;88.70
25360;DHT22;13311;51.386;0.016;2024-03-23T15:21:20;13.50;90.00
25360;DHT22;13311;51.386;0.016;2024-03-23T15:26:22;13.60;87.30
25360;DHT22;13311;51.386;0.016;2024-03-23T15:31:22;13.60;91.40
25360;DHT22;13311;51.386;0.016;2024-03-23T15:36:23;13.60;88.90
25360;DHT22;13311;51.386;0.016;2024-03-23T15:41:24;13.50;87.60
25360;DHT22;13311;51.386;0.016;2024-03-23T15:46:25;13.40;88.10
25360;DHT22;13311;51.386;0.016;2024-03-23T15:51:26;13.60;89.00
25360;DHT22;13311;51.386;0.016;2024-03-23T15:56:31;13.60;88.60
25360;DHT22;13311;51.386;0.016;2024-03-23T16:01:33;13.70;87.00
25360;DHT22;13311;51.386;0.016;2024-03-23T16:06:35;13.90;90.90
25360;DHT22;13311;51.386;0.016;2024-03-23T16:11:35;13.70;90.60
25360;DHT22;13311;51.386;0.016;2024-03-23T16:16:36;13.40;89.10
25360;DHT22;13311;51.386;0.016;2024-03-23T16:21:36;12.80;90.10
25360;DHT22;13311;51.386;0.016;2024-03-23T16:26:37;12.50;91.20
25360;DHT22;13311;51.386;0.016;2024-03-23T16:31:38;12.30;91.60
25360;DHT22;13311;51.386;0.016;2024-03-23T16:36:39;12.30;91.80
25360;DHT22;13311;51.386;0.016;2024-03-23T16:41:39;12.20;92.20
25360;DHT22;13311;51.386;0.016;2024-03-23T16:46:40;12.10;92.10
25360;DHT22;13311;51.386;0.016;2024-03-23T16:51:43;12.30;91.20
25360;DHT22;13311;51.386;0.016;2024-03-23T16:56:44;12.30;91.20
25360;DHT22;13311;51.386;0.016;2024-03-23T17:01:45;12.30;91.20
25360;DHT22;13311;51.386;0.016;2024-03-23T17:06:45;12.20;90.90
25360;DHT22;13311;51.386;0.016;2024-03-23T17:11:46;12.20;90.40
25360;DHT22;13311;51.386;0.016;2024-03-23T17:16:48;12.10;90.60
25360;DHT22;13311;51.386;0.016;2024-03-23T17:21:51;12.10;91.00
25360;DHT22;13311;51.386;0.016;2024-03-23T17:26:52;12.10;90.40
25360;DHT22;13311;51.386;0.016;2024-03-23T17:31:53;12.20;89.80
25360;DHT22;13311;51.386;0.016;2024-03-23T17:36:53;12.30;89.30
25360;DHT22;13311;51.386;0.016;2024-03-23T17:41:54;12.60;88.40
25360;DHT22;13311;51.386;0.016;2024-03-23T17:46:55;12.70;85.50
25360;DHT22;13311;51.386;0.016;2024-03-23T17:51:58;12.80;84.00
25360;DHT22;13311;51.386;0.016;2024-03-23T17:57:00;12.90;84.20
25360;DHT22;13311;51.386;0.016;2024-03-23T18:02:01;12.70;81.90
25360;DHT22;13311;51.386;0.016;2024-03-23T18:07:02;12.60;80.50
25360;DHT22;13311;51.386;0.016;2024-03-23T18:12:04;12.40;81.90
25360;DHT22;13311;51.386;0.016;2024-03-23T18:17:06;12.30;81.50
25360;DHT22;13311;51.386;0.016;2024-03-23T18:22:06;12.30;83.90
25360;DHT22;13311;51.386;0.016;2024-03-23T18:27:07;12.20;81.20
25360;DHT22;13311;51.386;0.016;2024-03-23T18:32:09;12.10;81.10
25360;DHT22;13311;51.386;0.016;2024-03-23T18:37:10;12.10;81.30
25360;DHT22;13311;51.386;0.016;2024-03-23T18:42:11;12.00;81.40
25360;DHT22;13311;51.386;0.016;2024-03-23T18:47:11;11.90;80.80
25360;DHT22;13311;51.386;0.016;2024-03-23T18:52:12;11.90;81.40
25360;DHT22;13311;51.386;0.016;2024-03-23T18:57:13;11.80;84.00
25360;DHT22;13311;51.386;0.016;2024-03-23T19:02:13;12.10;83.00
25360;DHT22;13311;51.386;0.016;2024-03-23T19:07:14;12.00;82.00
25360;DHT22;13311;51.386;0.016;2024-03-23T19:12:15;12.20;82.70
25360;DHT22;13311;51.386;0.016;2024-03-23T19:17:15;12.10;83.20
25360;DHT22;13311;51.386;0.016;2024-03-23T19:22:16;12.30;84.00
25360;DHT22;13311;51.386;0.016;2024-03-23T19:27:17;12.20;82.70
25360;DHT22;13311;51.386;0.016;2024-03-23T19:32:18;12.20;83.20
25360;DHT22;13311;51.386;0.016;2024-03-23T19:37:19;12.10;83.70
25360;DHT22;13311;51.386;0.016;2024-03-23T19:42:20;12.20;84.10
25360;DHT22;13311;51.386;0.016;2024-03-23T19:47:21;12.10;82.90
25360;DHT22;13311;51.386;0.016;2024-03-23T19:52:22;12.10;83.80
25360;DHT22;13311;51.386;0.016;2024-03-23T19:57:23;11.90;83.00
25360;DHT22;13311;51.386;0.016;2024-03-23T20:02:23;11.90;83.50
25360;DHT22;13311;51.386;0.016;2024-03-23T20:07:24;11.90;83.10
25360;DHT22;13311;51.386;0.016;2024-03-23T20:12:25;11.90;83.90
25360;DHT22;13311;51.386;0.016;2024-03-23T20:17:26;11.80;85.30
25360;DHT22;13311;51.386;0.016;2024-03-23T20:22:27;11.80;83.50
25360;DHT22;13311;51.386;0.016;2024-03-23T20:27:27;11.90;84.70
25360;DHT22;13311;51.386;0.016;2024-03-23T20:32:28;12.00;83.70
25360;DHT22;13311;51.386;0.016;2024-03-23T20:37:29;11.70;83.30
25360;DHT22;13311;51.386;0.016;2024-03-23T20:42:30;11.70;83.40
25360;DHT22;13311;51.386;0.016;2024-03-23T20:47:30;11.70;85.00
25360;DHT22;13311;51.386;0.016;2024-03-23T20:52:31;11.80;85.20
25360;DHT22;13311;51.386;0.016;2024-03-23T20:57:32;11.90;83.90
25360;DHT22;13311;51.386;0.016;2024-03-23T21:02:33;11.80;83.40
25360;DHT22;13311;51.386;0.016;2024-03-23T21:07:34;11.60;83.10
25360;DHT22;13311;51.386;0.016;2024-03-23T21:12:35;11.60;84.20
25360;DHT22;13311;51.386;0.016;2024-03-23T21:17:35;11.70;85.20
25360;DHT22;13311;51.386;0.016;2024-03-23T21:22:36;11.60;83.70
25360;DHT22;13311;51.386;0.016;2024-03-23T21:27:37;11.60;83.80
25360;DHT22;13311;51.386;0.016;2024-03-23T21:32:38;11.70;83.90
25360;DHT22;13311;51.386;0.016;2024-03-23T21:37:38;11.70;83.50
25360;DHT22;13311;51.386;0.016;2024-03-23T21:42:40;11.60;82.50
25360;DHT22;13311;51.386;0.016;2024-03-23T21:47:40;11.60;82.60
25360;DHT22;13311;51.386;0.016;2024-03-23T21:52:41;11.60;84.20
25360;DHT22;13311;51.386;0.016;2024-03-23T21:57:47;11.60;83.50
25360;DHT22;13311;51.386;0.016;2024-03-23T22:02:48;11.50;83.20
25360;DHT22;13311;51.386;0.016;2024-03-23T22:07:49;11.40;82.90
25360;DHT22;13311;51.386;0.016;2024-03-23T22:12:50;11.50;84.60
25360;DHT22;13311;51.386;0.016;2024-03-23T22:17:50;11.60;84.30
25360;DHT22;13311;51.386;0.016;2024-03-23T22:22:51;11.60;83.90
25360;DHT22;13311;51.386;0.016;2024-03-23T22:27:52;11.50;84.00
25360;DHT22;13311;51.386;0.016;2024-03-23T22:32:53;11.60;85.90
25360;DHT22;13311;51.386;0.016;2024-03-23T22:37:55;11.60;82.80
25360;DHT22;13311;51.386;0.016;2024-03-23T22:42:55;11.40;83.00
25360;DHT22;13311;51.386;0.016;2024-03-23T22:47:56;11.40;83.60
25360;DHT22;13311;51.386;0.016;2024-03-23T22:52:57;11.30;84.20
25360;DHT22;13311;51.386;0.016;2024-03-23T22:57:57;11.50;85.10
25360;DHT22;13311;51.386;0.016;2024-03-23T23:02:58;11.50;85.50
25360;DHT22;13311;51.386;0.016;2024-03-23T23:07:59;11.50;84.10
25360;DHT22;13311;51.386;0.016;2024-03-23T23:13:00;11.50;85.30
25360;DHT22;13311;51.386;0.016;2024-03-23T23:18:01;11.50;85.30
25360;DHT22;13311;51.386;0.016;2024-03-23T23:23:02;11.50;84.50
25360;DHT22;13311;51.386;0.016;2024-03-23T23:28:03;11.40;85.20
25360;DHT22;13311;51.386;0.016;2024-03-23T23:33:03;11.40;85.00
25360;DHT22;13311;51.386;0.016;2024-03-23T23:38:04;11.40;84.60
25360;DHT22;13311;51.386;0.016;2024-03-23T23:43:05;11.30;84.90
25360;DHT22;13311;51.386;0.016;2024-03-23T23:48:06;11.30;86.50
25360;DHT22;13311;51.386;0.016;2024-03-23T23:53:07;11.20;84.80
25360;DHT22;13311;51.386;0.016;2024-03-23T23:58:07;11.10;85.20
